Time;durP1;ratioP1;P1;durP2;ratioP2;P2;SDS_P1;SDS_P2;PMS_P1;PMS_P2;Temp;Humidity;BMP_temperature;BMP_pressure;BME280_temperature;BME280_humidity;BME280_pressure;Samples;Min_cycle;Max_cycle;Signal;HPM_P1;HPM_P2
2021/07/25 00:02:15;;;;;;;4.50;4.10;;;;;;;;;;4957791;29;20541;-83
2021/07/25 00:04:42;;;;;;;3.90;3.60;;;;;;;;;;4957515;29;20217;-83
2021/07/25 00:07:09;;;;;;;4.00;3.38;;;;;;;;;;4957708;29;20560;-83
2021/07/25 00:09:37;;;;;;;3.58;3.28;;;;;;;;;;4957188;29;20205;-83
2021/07/25 00:12:07;;;;;;;3.63;3.05;;;;;;;;;;4957642;29;20211;-83
2021/07/25 00:14:34;;;;;;;4.80;4.40;;;;;;;;;;4957415;28;20220;-83
2021/07/25 00:17:02;;;;;;;4.10;3.80;;;;;;;;;;4957494;29;20212;-83
2021/07/25 00:19:30;;;;;;;4.07;3.78;;;;;;;;;;4957059;29;20212;-83
2021/07/25 00:21:59;;;;;;;4.70;4.30;;;;;;;;;;4957699;29;20596;-83
2021/07/25 00:24:30;;;;;;;3.75;3.45;;;;;;;;;;4957141;29;20617;-83
2021/07/25 00:27:00;;;;;;;3.80;3.50;;;;;;;;;;4957405;29;20300;-83
2021/07/25 00:29:30;;;;;;;3.58;3.38;;;;;;;;;;4957498;29;20196;-83
2021/07/25 00:32:01;;;;;;;3.90;3.60;;;;;;;;;;4957373;29;20190;-83
2021/07/25 00:34:30;;;;;;;4.72;4.28;;;;;;;;;;4957345;29;20225;-83
2021/07/25 00:36:57;;;;;;;5.60;4.97;;;;;;;;;;4957090;29;20663;-83
2021/07/25 00:39:25;;;;;;;4.85;4.35;;;;;;;;;;4957024;29;20201;-83
2021/07/25 00:41:54;;;;;;;5.32;4.82;;;;;;;;;;4957267;29;20201;-82
2021/07/25 00:44:21;;;;;;;4.88;4.47;;;;;;;;;;4956615;29;20229;-83
2021/07/25 00:46:56;;;;;;;5.20;4.47;;;;;;;;;;4956356;29;20968;-83
2021/07/25 00:49:23;;;;;;;5.13;4.72;;;;;;;;;;4956684;29;20196;-83
2021/07/25 00:51:51;;;;;;;5.18;4.78;;;;;;;;;;4956148;29;20604;-82
2021/07/25 00:54:18;;;;;;;4.38;4.07;;;;;;;;;;4956088;29;20225;-82
2021/07/25 00:56:46;;;;;;;5.32;4.93;;;;;;;;;;4956630;29;20582;-83
2021/07/25 00:59:14;;;;;;;5.38;4.97;;;;;;;;;;4955145;29;20205;-83
2021/07/25 01:01:43;;;;;;;5.78;5.22;;;;;;;;;;4956928;29;20189;-82
2021/07/25 01:04:24;;;;;;;6.07;5.55;;;;;;;;;;4955244;28;20225;-83
2021/07/25 01:07:10;;;;;;;5.03;4.63;;;;;;;;;;4956710;29;20244;-82
2021/07/25 01:09:44;;;;;;;6.35;5.75;;;;;;;;;;4956828;29;20193;-82
2021/07/25 01:12:19;;;;;;;5.70;5.20;;;;;;;;;;4956665;29;20218;-83
2021/07/25 01:14:49;;;;;;;5.05;4.65;;;;;;;;;;4956240;29;20729;-83
2021/07/25 01:17:31;;;;;;;5.28;4.78;;;;;;;;;;4956543;29;20189;-83
2021/07/25 01:20:02;;;;;;;5.30;4.90;;;;;;;;;;4956565;29;20553;-83
2021/07/25 01:22:32;;;;;;;5.07;4.57;;;;;;;;;;4956421;29;20211;-82
2021/07/25 01:25:00;;;;;;;5.30;4.90;;;;;;;;;;4956353;29;20252;-82
2021/07/25 01:27:36;;;;;;;5.30;4.68;;;;;;;;;;4956384;29;20227;-82
2021/07/25 01:30:08;;;;;;;4.65;4.25;;;;;;;;;;4956035;29;20185;-82
2021/07/25 01:32:35;;;;;;;5.88;5.38;;;;;;;;;;4956087;29;20293;-83
2021/07/25 01:35:06;;;;;;;6.07;5.47;;;;;;;;;;4956044;29;20729;-82
2021/07/25 01:37:33;;;;;;;5.70;5.20;;;;;;;;;;4955839;29;20233;-83
2021/07/25 01:40:00;;;;;;;5.45;4.95;;;;;;;;;;4956040;29;20192;-82
2021/07/25 01:42:32;;;;;;;5.90;5.40;;;;;;;;;;4956017;29;20189;-82
2021/07/25 01:45:01;;;;;;;5.75;5.32;;;;;;;;;;4955985;29;20232;-82
2021/07/25 01:47:29;;;;;;;7.00;5.70;;;;;;;;;;4955247;29;20313;-83
2021/07/25 01:49:57;;;;;;;6.57;5.97;;;;;;;;;;4955873;29;20263;-82
2021/07/25 01:52:25;;;;;;;5.90;5.25;;;;;;;;;;4955529;29;20189;-82
2021/07/25 01:54:53;;;;;;;5.70;5.20;;;;;;;;;;4955662;29;20216;-84
2021/07/25 01:57:20;;;;;;;5.35;4.85;;;;;;;;;;4955544;29;20197;-82
2021/07/25 01:59:48;;;;;;;7.47;6.68;;;;;;;;;;4955367;29;20667;-83
2021/07/25 02:02:15;;;;;;;5.72;5.22;;;;;;;;;;4955267;29;20216;-83
2021/07/25 02:04:42;;;;;;;5.43;4.93;;;;;;;;;;4955364;28;20228;-83
2021/07/25 02:07:10;;;;;;;4.43;4.03;;;;;;;;;;4955398;29;20224;-83
2021/07/25 02:09:39;;;;;;;6.55;5.70;;;;;;;;;;4955392;29;20686;-83
2021/07/25 02:12:08;;;;;;;4.20;3.85;;;;;;;;;;4955112;29;20205;-82
2021/07/25 02:14:37;;;;;;;4.57;4.20;;;;;;;;;;4954746;28;20719;-83
2021/07/25 02:17:05;;;;;;;5.20;4.70;;;;;;;;;;4955390;29;20201;-82
2021/07/25 02:19:33;;;;;;;6.15;5.65;;;;;;;;;;4955493;29;20197;-82
2021/07/25 02:22:01;;;;;;;5.80;5.30;;;;;;;;;;4954755;29;20210;-83
2021/07/25 02:24:29;;;;;;;5.40;4.90;;;;;;;;;;4953754;28;20605;-83
2021/07/25 02:26:57;;;;;;;5.47;4.97;;;;;;;;;;4962803;28;20216;-83
2021/07/25 02:29:25;;;;;;;5.43;4.93;;;;;;;;;;4974772;28;20196;-84
2021/07/25 02:31:54;;;;;;;4.65;4.25;;;;;;;;;;4962460;28;20211;-82
2021/07/25 02:34:21;;;;;;;3.70;3.40;;;;;;;;;;4961010;28;20220;-82
2021/07/25 02:36:48;;;;;;;4.97;4.57;;;;;;;;;;4958816;28;20236;-82
2021/07/25 02:39:16;;;;;;;4.25;3.95;;;;;;;;;;4954021;29;20870;-82
2021/07/25 02:41:44;;;;;;;6.45;5.85;;;;;;;;;;4954578;29;20281;-82
2021/07/25 02:44:13;;;;;;;4.97;4.50;;;;;;;;;;4954589;28;20714;-83
2021/07/25 02:46:40;;;;;;;4.72;4.32;;;;;;;;;;4954388;29;20225;-83
2021/07/25 02:49:08;;;;;;;4.85;4.35;;;;;;;;;;4954503;29;20205;-82
2021/07/25 02:51:35;;;;;;;5.50;4.88;;;;;;;;;;4954905;29;20285;-82
2021/07/25 02:54:03;;;;;;;5.20;4.75;;;;;;;;;;4954885;28;20225;-82
2021/07/25 02:56:32;;;;;;;3.88;3.58;;;;;;;;;;4954650;29;20186;-82
2021/07/25 02:59:00;;;;;;;3.78;3.47;;;;;;;;;;4954613;29;20193;-83
2021/07/25 03:01:28;;;;;;;3.63;3.33;;;;;;;;;;4954663;29;20216;-82
2021/07/25 03:03:56;;;;;;;4.28;3.95;;;;;;;;;;4954258;28;20240;-83
2021/07/25 03:06:24;;;;;;;4.22;3.72;;;;;;;;;;4954308;29;20208;-83
2021/07/25 03:08:53;;;;;;;3.47;3.05;;;;;;;;;;4954667;29;20209;-83
2021/07/25 03:11:22;;;;;;;5.43;4.93;;;;;;;;;;4954722;29;20193;-83
2021/07/25 03:13:49;;;;;;;4.38;4.05;;;;;;;;;;4954222;28;20229;-82
2021/07/25 03:16:17;;;;;;;3.53;3.28;;;;;;;;;;4954118;29;20196;-83
2021/07/25 03:18:46;;;;;;;5.35;4.85;;;;;;;;;;4953735;29;20186;-82
2021/07/25 03:21:13;;;;;;;4.72;4.32;;;;;;;;;;4954626;29;20200;-84
2021/07/25 03:23:41;;;;;;;5.15;4.70;;;;;;;;;;4954233;28;20227;-82
2021/07/25 03:26:08;;;;;;;5.50;5.00;;;;;;;;;;4954239;28;20185;-82
2021/07/25 03:28:35;;;;;;;6.07;4.93;;;;;;;;;;4953953;29;20224;-82
2021/07/25 03:31:03;;;;;;;4.25;3.83;;;;;;;;;;4954512;29;20189;-82
2021/07/25 03:33:30;;;;;;;4.30;3.90;;;;;;;;;;4954207;28;20316;-82
2021/07/25 03:35:59;;;;;;;4.45;4.05;;;;;;;;;;4954059;29;20204;-82
2021/07/25 03:38:27;;;;;;;4.90;4.50;;;;;;;;;;4954352;29;20201;-82
2021/07/25 03:41:01;;;;;;;4.82;4.38;;;;;;;;;;4954627;29;20624;-82
2021/07/25 03:43:29;;;;;;;5.05;4.55;;;;;;;;;;4954224;28;20219;-82
2021/07/25 03:45:56;;;;;;;5.28;4.80;;;;;;;;;;4953912;29;20898;-84
2021/07/25 03:48:24;;;;;;;5.70;5.20;;;;;;;;;;4953935;29;20690;-83
2021/07/25 03:50:52;;;;;;;5.55;5.05;;;;;;;;;;4954492;29;20196;-82
2021/07/25 03:53:21;;;;;;;5.68;5.10;;;;;;;;;;4954202;28;20260;-82
2021/07/25 03:55:49;;;;;;;5.13;4.72;;;;;;;;;;4954016;29;20196;-82
2021/07/25 03:58:16;;;;;;;4.53;4.13;;;;;;;;;;4953976;29;20215;-82
2021/07/25 04:00:43;;;;;;;5.68;5.18;;;;;;;;;;4953863;29;20667;-82
2021/07/25 04:03:12;;;;;;;5.05;4.55;;;;;;;;;;4953832;28;20232;-82
2021/07/25 04:05:39;;;;;;;5.35;4.88;;;;;;;;;;4953077;29;20212;-82
2021/07/25 04:08:11;;;;;;;5.13;4.72;;;;;;;;;;4953759;29;20213;-82
2021/07/25 04:10:44;;;;;;;4.97;4.57;;;;;;;;;;4954045;29;20194;-82
2021/07/25 04:13:12;;;;;;;6.60;5.85;;;;;;;;;;4954061;28;20224;-82
2021/07/25 04:15:41;;;;;;;4.38;3.97;;;;;;;;;;4954079;29;20204;-82
2021/07/25 04:18:10;;;;;;;5.38;4.88;;;;;;;;;;4954035;29;20192;-82
2021/07/25 04:20:38;;;;;;;5.00;4.50;;;;;;;;;;4953667;29;20667;-82
2021/07/25 04:23:06;;;;;;;5.63;5.10;;;;;;;;;;4953945;28;20196;-82
2021/07/25 04:25:34;;;;;;;4.00;3.65;;;;;;;;;;4953843;29;20302;-82
2021/07/25 04:28:05;;;;;;;2.88;2.65;;;;;;;;;;4953685;29;20229;-82
2021/07/25 04:30:34;;;;;;;3.58;3.28;;;;;;;;;;4953514;29;20212;-82
2021/07/25 04:33:02;;;;;;;3.90;3.42;;;;;;;;;;4953811;28;20204;-82
2021/07/25 04:35:32;;;;;;;3.42;3.17;;;;;;;;;;4953878;29;20189;-82
2021/07/25 04:38:00;;;;;;;3.08;2.80;;;;;;;;;;4953660;28;20239;-82
2021/07/25 04:40:30;;;;;;;3.88;3.58;;;;;;;;;;4956696;29;20212;-82
2021/07/25 04:42:59;;;;;;;4.78;4.38;;;;;;;;;;4956635;28;20209;-82
2021/07/25 04:45:34;;;;;;;4.22;3.83;;;;;;;;;;4957035;29;20190;-82
2021/07/25 04:48:19;;;;;;;3.78;3.47;;;;;;;;;;4957168;29;20209;-82
2021/07/25 04:50:52;;;;;;;6.72;5.53;;;;;;;;;;4957227;29;20221;-82
2021/07/25 04:53:25;;;;;;;5.63;5.13;;;;;;;;;;4957005;28;20272;-83
2021/07/25 04:55:59;;;;;;;5.03;4.53;;;;;;;;;;4957208;29;20189;-82
2021/07/25 04:58:34;;;;;;;5.55;5.05;;;;;;;;;;4957643;29;20193;-82
2021/07/25 05:01:04;;;;;;;5.10;4.68;;;;;;;;;;4957391;29;20211;-82
2021/07/25 05:03:34;;;;;;;4.15;3.75;;;;;;;;;;4957437;28;20271;-82
2021/07/25 05:06:02;;;;;;;5.38;4.88;;;;;;;;;;4957254;29;20636;-82
2021/07/25 05:08:30;;;;;;;4.85;4.30;;;;;;;;;;4995084;23;20239;-80
2021/07/25 05:11:09;;;;;;;7.25;6.55;;;;;;;;;;4999931;28;20689;-83
2021/07/25 05:13:37;;;;;;;6.22;5.63;;;;;;;;;;4997575;28;20217;-83
2021/07/25 05:16:08;;;;;;;5.97;5.47;;;;;;;;;;4997492;28;20190;-85
2021/07/25 05:18:41;;;;;;;6.95;5.65;;;;;;;;;;4997526;28;20224;-81
2021/07/25 05:21:22;;;;;;;6.28;5.68;;;;;;;;;;4997742;28;20192;-82
2021/07/25 05:23:51;;;;;;;6.82;6.10;;;;;;;;;;4997378;28;20211;-83
2021/07/25 05:26:26;;;;;;;6.35;5.85;;;;;;;;;;4997674;28;20196;-84
2021/07/25 05:28:57;;;;;;;9.32;6.82;;;;;;;;;;4997264;28;20253;-83
2021/07/25 05:31:31;;;;;;;6.15;5.60;;;;;;;;;;4997858;28;20192;-84
2021/07/25 05:33:59;;;;;;;7.80;7.03;;;;;;;;;;4997033;28;20574;-83
2021/07/25 05:36:27;;;;;;;6.65;5.85;;;;;;;;;;4997691;28;20688;-81
2021/07/25 05:38:55;;;;;;;5.15;4.72;;;;;;;;;;4997388;28;20306;-84
2021/07/25 05:41:23;;;;;;;5.22;4.82;;;;;;;;;;4997766;28;20196;-84
2021/07/25 05:43:50;;;;;;;6.45;5.95;;;;;;;;;;4997104;28;20192;-84
2021/07/25 05:46:18;;;;;;;6.07;5.47;;;;;;;;;;4997371;28;20187;-84
2021/07/25 05:48:46;;;;;;;6.88;6.18;;;;;;;;;;4997468;28;20223;-85
2021/07/25 05:51:14;;;;;;;5.38;4.88;;;;;;;;;;4996449;28;20204;-85
2021/07/25 05:53:42;;;;;;;6.78;5.85;;;;;;;;;;4997200;28;20208;-80
2021/07/25 05:56:10;;;;;;;5.68;5.15;;;;;;;;;;4997166;28;20211;-84
2021/07/25 05:58:37;;;;;;;5.68;5.18;;;;;;;;;;4997539;28;20396;-84
2021/07/25 06:01:05;;;;;;;5.95;5.45;;;;;;;;;;4996954;28;20199;-81
2021/07/25 06:03:32;;;;;;;5.82;4.78;;;;;;;;;;4996540;28;20191;-85
2021/07/25 06:06:01;;;;;;;4.72;4.32;;;;;;;;;;4996610;28;20207;-84
2021/07/25 06:08:29;;;;;;;5.40;4.90;;;;;;;;;;4986950;28;20244;-84
2021/07/25 06:10:56;;;;;;;5.22;4.78;;;;;;;;;;4977493;28;20204;-84
2021/07/25 06:13:23;;;;;;;6.47;5.88;;;;;;;;;;4976427;28;20200;-83
2021/07/25 06:15:51;;;;;;;5.50;5.03;;;;;;;;;;4977225;28;20200;-85
2021/07/25 06:18:18;;;;;;;5.53;5.03;;;;;;;;;;4977601;28;20220;-84
2021/07/25 06:20:46;;;;;;;5.70;5.20;;;;;;;;;;4976473;28;20211;-84
2021/07/25 06:23:16;;;;;;;5.97;5.38;;;;;;;;;;4975170;28;20195;-85
2021/07/25 06:25:43;;;;;;;5.85;5.35;;;;;;;;;;4975577;28;20200;-83
2021/07/25 06:28:11;;;;;;;5.68;5.18;;;;;;;;;;4976196;28;20231;-85
2021/07/25 06:30:39;;;;;;;5.38;4.50;;;;;;;;;;4977146;28;20235;-85
2021/07/25 06:33:08;;;;;;;4.90;4.45;;;;;;;;;;4977284;28;20195;-84
2021/07/25 06:35:37;;;;;;;4.97;4.50;;;;;;;;;;4976521;28;20215;-85
2021/07/25 06:38:06;;;;;;;5.22;4.68;;;;;;;;;;4977090;28;20224;-84
2021/07/25 06:40:37;;;;;;;4.45;4.05;;;;;;;;;;4977104;28;20199;-86
2021/07/25 06:43:05;;;;;;;4.38;4.05;;;;;;;;;;4977154;28;20203;-83
2021/07/25 06:45:34;;;;;;;5.43;4.20;;;;;;;;;;4975768;28;20193;-86
2021/07/25 06:48:02;;;;;;;4.15;3.85;;;;;;;;;;4975743;28;20239;-85
2021/07/25 06:50:31;;;;;;;4.15;3.85;;;;;;;;;;4975438;28;20216;-86
2021/07/25 06:53:00;;;;;;;4.25;3.85;;;;;;;;;;4976188;28;20199;-85
2021/07/25 06:55:29;;;;;;;5.15;4.75;;;;;;;;;;4977955;28;20188;-85
2021/07/25 06:57:58;;;;;;;5.07;4.57;;;;;;;;;;4977425;28;20226;-83
2021/07/25 07:00:27;;;;;;;5.75;5.20;;;;;;;;;;4976924;28;20185;-84
2021/07/25 07:02:55;;;;;;;5.75;5.25;;;;;;;;;;4975218;28;20204;-85
2021/07/25 07:05:24;;;;;;;7.22;6.63;;;;;;;;;;4974870;28;20191;-82
2021/07/25 07:07:53;;;;;;;7.40;5.93;;;;;;;;;;4975756;28;20705;-84
2021/07/25 07:10:22;;;;;;;6.47;5.63;;;;;;;;;;4975144;28;20230;-84
2021/07/25 07:12:51;;;;;;;7.28;6.68;;;;;;;;;;4976420;28;20215;-84
2021/07/25 07:15:21;;;;;;;6.22;5.70;;;;;;;;;;4976085;28;20589;-83
2021/07/25 07:17:50;;;;;;;5.60;5.10;;;;;;;;;;4976048;28;20232;-82
2021/07/25 07:20:18;;;;;;;5.72;5.13;;;;;;;;;;4978708;28;20196;-82
2021/07/25 07:22:52;;;;;;;6.97;4.93;;;;;;;;;;4979813;28;20197;-83
2021/07/25 07:25:20;;;;;;;5.93;5.43;;;;;;;;;;4981464;28;20207;-83
2021/07/25 07:27:48;;;;;;;5.65;5.05;;;;;;;;;;4979082;28;20235;-84
2021/07/25 07:30:16;;;;;;;5.50;4.97;;;;;;;;;;4979832;28;20208;-83
2021/07/25 07:32:45;;;;;;;5.93;5.43;;;;;;;;;;4981609;28;20196;-84
2021/07/25 07:35:12;;;;;;;5.68;4.95;;;;;;;;;;4976414;28;20592;-85
2021/07/25 07:37:40;;;;;;;6.93;6.10;;;;;;;;;;4978365;28;20224;-84
2021/07/25 07:40:09;;;;;;;6.85;6.18;;;;;;;;;;4978803;28;20252;-83
2021/07/25 07:42:38;;;;;;;5.97;5.47;;;;;;;;;;4977845;28;20223;-83
2021/07/25 07:45:08;;;;;;;6.30;5.68;;;;;;;;;;4976692;28;20196;-83
2021/07/25 07:47:35;;;;;;;5.45;5.05;;;;;;;;;;4978557;28;20226;-84
2021/07/25 07:50:05;;;;;;;5.13;4.72;;;;;;;;;;4977130;28;20241;-84
2021/07/25 07:52:32;;;;;;;5.40;5.00;;;;;;;;;;4976087;28;20578;-82
2021/07/25 07:55:00;;;;;;;5.28;4.88;;;;;;;;;;4974621;28;20189;-83
2021/07/25 07:57:42;;;;;;;5.75;5.28;;;;;;;;;;4974534;28;20204;-86
2021/07/25 08:00:11;;;;;;;5.95;5.45;;;;;;;;;;4973124;28;20220;-86
2021/07/25 08:02:39;;;;;;;6.80;6.20;;;;;;;;;;4973995;28;20185;-84
2021/07/25 08:05:09;;;;;;;6.32;5.72;;;;;;;;;;4973862;28;20181;-85
2021/07/25 08:07:37;;;;;;;6.75;6.15;;;;;;;;;;4974339;28;20231;-83
2021/07/25 08:10:07;;;;;;;5.38;4.97;;;;;;;;;;4973701;28;20224;-83
2021/07/25 08:12:34;;;;;;;6.80;6.10;;;;;;;;;;4973122;28;20204;-83
2021/07/25 08:15:02;;;;;;;5.60;5.10;;;;;;;;;;4976749;28;20216;-85
2021/07/25 08:17:29;;;;;;;7.03;6.32;;;;;;;;;;4978108;28;20191;-86
2021/07/25 08:19:57;;;;;;;5.55;5.05;;;;;;;;;;4977647;28;20635;-83
2021/07/25 08:22:26;;;;;;;5.88;5.38;;;;;;;;;;4977477;28;20830;-85
2021/07/25 08:24:53;;;;;;;5.40;4.90;;;;;;;;;;4976966;28;20197;-84
2021/07/25 08:27:20;;;;;;;5.60;5.10;;;;;;;;;;4976744;28;20193;-84
2021/07/25 08:29:48;;;;;;;5.78;5.32;;;;;;;;;;4976679;28;20556;-84
2021/07/25 08:32:15;;;;;;;5.00;4.60;;;;;;;;;;4977338;28;20204;-83
2021/07/25 08:34:43;;;;;;;4.95;4.50;;;;;;;;;;4976453;28;20198;-83
2021/07/25 08:37:11;;;;;;;7.03;6.43;;;;;;;;;;4976965;28;20188;-84
2021/07/25 08:39:41;;;;;;;6.80;6.20;;;;;;;;;;4976314;28;20272;-83
2021/07/25 08:42:10;;;;;;;6.72;6.13;;;;;;;;;;4976936;28;20652;-84
2021/07/25 08:44:49;;;;;;;6.38;5.63;;;;;;;;;;4976408;28;20235;-85
2021/07/25 08:47:39;;;;;;;5.68;5.18;;;;;;;;;;4975776;28;20195;-85
2021/07/25 08:50:13;;;;;;;6.15;5.55;;;;;;;;;;4974103;28;20244;-84
2021/07/25 08:52:46;;;;;;;6.53;5.93;;;;;;;;;;4976058;28;20563;-84
2021/07/25 08:55:17;;;;;;;6.72;6.13;;;;;;;;;;4975698;28;20378;-83
2021/07/25 08:57:47;;;;;;;6.18;5.65;;;;;;;;;;4975334;28;20232;-84
2021/07/25 09:00:17;;;;;;;5.28;4.88;;;;;;;;;;4975302;28;20189;-84
2021/07/25 09:02:51;;;;;;;5.53;5.03;;;;;;;;;;4976072;28;20207;-82
2021/07/25 09:05:19;;;;;;;7.13;6.00;;;;;;;;;;4976114;28;20236;-83
2021/07/25 09:07:48;;;;;;;5.50;5.00;;;;;;;;;;4979472;28;20234;-82
2021/07/25 09:10:19;;;;;;;5.10;4.70;;;;;;;;;;4996746;28;20714;-84
2021/07/25 09:12:49;;;;;;;5.78;5.28;;;;;;;;;;4997519;28;20195;-83
2021/07/25 09:15:19;;;;;;;6.88;6.20;;;;;;;;;;4998118;28;20627;-81
2021/07/25 09:17:48;;;;;;;5.43;5.03;;;;;;;;;;4997258;28;20237;-82
2021/07/25 09:20:22;;;;;;;5.20;4.70;;;;;;;;;;4997152;28;20203;-82
2021/07/25 09:23:17;;;;;;;6.10;5.53;;;;;;;;;;4996584;28;20194;-83
2021/07/25 09:25:51;;;;;;;5.75;5.25;;;;;;;;;;4988199;28;20600;-82
2021/07/25 09:28:22;;;;;;;4.85;4.45;;;;;;;;;;4970399;28;20708;-82
2021/07/25 09:30:49;;;;;;;5.03;4.63;;;;;;;;;;4975913;28;20213;-83
2021/07/25 09:33:32;;;;;;;5.90;5.30;;;;;;;;;;4958576;28;20591;-83
2021/07/25 09:36:11;;;;;;;4.68;4.35;;;;;;;;;;4958057;29;20244;-84
2021/07/25 09:38:42;;;;;;;6.28;5.68;;;;;;;;;;4959082;29;20325;-80
2021/07/25 09:41:24;;;;;;;6.95;6.35;;;;;;;;;;4958096;29;20215;-85
2021/07/25 09:44:01;;;;;;;6.40;5.82;;;;;;;;;;4958217;29;20189;-82
2021/07/25 09:46:34;;;;;;;6.43;5.25;;;;;;;;;;4961182;28;20193;-83
2021/07/25 09:49:02;;;;;;;6.03;5.50;;;;;;;;;;4965704;28;20729;-83
2021/07/25 09:51:32;;;;;;;4.78;4.38;;;;;;;;;;4978231;28;20228;-82
2021/07/25 09:54:05;;;;;;;5.40;4.90;;;;;;;;;;4977686;28;20231;-83
2021/07/25 09:56:34;;;;;;;5.80;5.32;;;;;;;;;;4978830;28;20626;-83
2021/07/25 09:59:02;;;;;;;4.88;4.47;;;;;;;;;;4978092;28;20860;-82
2021/07/25 10:01:37;;;;;;;5.15;4.75;;;;;;;;;;4971935;28;20200;-82
2021/07/25 10:04:17;;;;;;;4.90;4.50;;;;;;;;;;4957064;29;20668;-81
2021/07/25 10:06:46;;;;;;;4.38;4.07;;;;;;;;;;4957435;29;20194;-84
2021/07/25 10:09:15;;;;;;;5.15;4.75;;;;;;;;;;4957682;28;20237;-83
2021/07/25 10:11:49;;;;;;;5.82;4.65;;;;;;;;;;4958315;29;20209;-84
2021/07/25 10:14:20;;;;;;;5.43;4.93;;;;;;;;;;4957098;29;20286;-83
2021/07/25 10:16:52;;;;;;;4.55;4.18;;;;;;;;;;4957991;28;20193;-82
2021/07/25 10:19:28;;;;;;;4.03;3.72;;;;;;;;;;4956540;29;20229;-82
2021/07/25 10:21:58;;;;;;;4.43;4.03;;;;;;;;;;4957090;29;20212;-84
2021/07/25 10:24:27;;;;;;;3.90;3.60;;;;;;;;;;4957152;29;20197;-82
2021/07/25 10:26:58;;;;;;;3.78;3.47;;;;;;;;;;4965648;28;20205;-83
2021/07/25 10:29:28;;;;;;;3.25;3.05;;;;;;;;;;4976194;28;20319;-84
2021/07/25 10:31:58;;;;;;;4.43;4.10;;;;;;;;;;4976336;28;20721;-84
2021/07/25 10:34:27;;;;;;;4.68;4.28;;;;;;;;;;4976199;28;20193;-83
2021/07/25 10:36:54;;;;;;;5.75;5.25;;;;;;;;;;4975886;28;20189;-84
2021/07/25 10:39:23;;;;;;;5.25;4.78;;;;;;;;;;4958159;29;20227;-83
2021/07/25 10:41:53;;;;;;;4.97;4.57;;;;;;;;;;4957569;29;20186;-83
2021/07/25 10:44:25;;;;;;;5.68;5.18;;;;;;;;;;4956945;29;20193;-83
2021/07/25 10:47:27;;;;;;;5.15;4.75;;;;;;;;;;4957153;29;20190;-82
2021/07/25 10:49:59;;;;;;;4.70;4.30;;;;;;;;;;4957044;29;20208;-82
2021/07/25 10:52:27;;;;;;;4.95;4.55;;;;;;;;;;4956602;29;20231;-82
2021/07/25 10:54:55;;;;;;;5.05;4.65;;;;;;;;;;4957076;29;20198;-82
2021/07/25 10:57:22;;;;;;;5.78;5.28;;;;;;;;;;4958962;29;20193;-83
2021/07/25 10:59:55;;;;;;;6.50;5.63;;;;;;;;;;4958802;29;20185;-83
2021/07/25 11:02:54;;;;;;;4.00;3.70;;;;;;;;;;4958119;29;20196;-82
2021/07/25 11:05:23;;;;;;;4.50;4.10;;;;;;;;;;4959793;28;20563;-84
2021/07/25 11:08:01;;;;;;;4.63;4.22;;;;;;;;;;4974180;28;20244;-83
2021/07/25 11:10:33;;;;;;;3.83;3.53;;;;;;;;;;4976479;28;20216;-83
2021/07/25 11:13:16;;;;;;;3.97;3.67;;;;;;;;;;4975925;28;20228;-83
2021/07/25 11:15:46;;;;;;;5.50;5.00;;;;;;;;;;4976674;28;20201;-83
2021/07/25 11:18:29;;;;;;;4.75;4.35;;;;;;;;;;4975943;28;20790;-83
2021/07/25 11:20:59;;;;;;;5.78;5.28;;;;;;;;;;4977102;28;20192;-82
2021/07/25 11:23:35;;;;;;;5.40;5.00;;;;;;;;;;4976524;28;20201;-84
2021/07/25 11:26:38;;;;;;;5.88;5.38;;;;;;;;;;4975843;28;20188;-84
2021/07/25 11:29:44;;;;;;;6.80;6.10;;;;;;;;;;5012509;23;20227;-83
2021/07/25 11:32:44;;;;;;;6.43;5.93;;;;;;;;;;4988588;28;20224;-83
2021/07/25 11:35:16;;;;;;;5.50;5.10;;;;;;;;;;4917068;29;20572;-83
2021/07/25 11:37:45;;;;;;;5.68;5.10;;;;;;;;;;4960796;28;20233;-84
2021/07/25 11:40:14;;;;;;;5.30;4.85;;;;;;;;;;4957658;29;20192;-84
2021/07/25 11:42:42;;;;;;;6.38;5.88;;;;;;;;;;4957791;29;20181;-85
2021/07/25 11:45:10;;;;;;;6.10;5.60;;;;;;;;;;4957502;29;20213;-86
2021/07/25 11:47:38;;;;;;;5.38;4.95;;;;;;;;;;4959363;28;20221;-85
2021/07/25 11:50:08;;;;;;;5.40;4.90;;;;;;;;;;4962651;28;20205;-84
2021/07/25 11:52:35;;;;;;;6.03;5.53;;;;;;;;;;4965145;28;20213;-82
2021/07/25 11:55:03;;;;;;;5.95;4.97;;;;;;;;;;4963458;29;20693;-83
2021/07/25 11:57:30;;;;;;;6.15;5.55;;;;;;;;;;4960216;28;20214;-83
2021/07/25 12:00:02;;;;;;;7.80;7.10;;;;;;;;;;4961270;29;20197;-83
2021/07/25 12:02:31;;;;;;;7.70;7.10;;;;;;;;;;4955714;29;20200;-81
2021/07/25 12:05:01;;;;;;;6.88;6.15;;;;;;;;;;4948667;29;20208;-81
2021/07/25 12:07:34;;;;;;;6.15;5.68;;;;;;;;;;4941956;29;20182;-82
2021/07/25 12:10:02;;;;;;;5.38;4.97;;;;;;;;;;4962536;29;20221;-81
2021/07/25 12:12:36;;;;;;;5.32;4.85;;;;;;;;;;4960976;29;20209;-81
2021/07/25 12:15:10;;;;;;;6.22;5.65;;;;;;;;;;4960421;29;20210;-82
2021/07/25 12:17:47;;;;;;;5.88;5.38;;;;;;;;;;4960273;28;20217;-84
2021/07/25 12:20:17;;;;;;;5.97;5.47;;;;;;;;;;4961019;28;20197;-81
2021/07/25 12:22:56;;;;;;;6.20;5.70;;;;;;;;;;4961504;29;20208;-83
2021/07/25 12:25:24;;;;;;;5.38;4.80;;;;;;;;;;4962656;29;20288;-82
2021/07/25 12:28:05;;;;;;;5.43;4.93;;;;;;;;;;4966112;28;20228;-83
2021/07/25 12:30:44;;;;;;;4.88;4.47;;;;;;;;;;4975232;28;20690;-83
2021/07/25 12:33:13;;;;;;;5.50;5.00;;;;;;;;;;4977281;28;20263;-82
2021/07/25 12:35:41;;;;;;;5.15;4.75;;;;;;;;;;4956849;28;20272;-82
2021/07/25 12:38:15;;;;;;;4.30;3.90;;;;;;;;;;4961170;28;20604;-82
2021/07/25 12:40:50;;;;;;;6.13;5.63;;;;;;;;;;4962069;28;20561;-82
2021/07/25 12:43:19;;;;;;;5.38;4.97;;;;;;;;;;4949571;29;20216;-83
2021/07/25 12:45:48;;;;;;;6.43;5.85;;;;;;;;;;4952227;29;20200;-82
2021/07/25 12:48:29;;;;;;;6.40;5.82;;;;;;;;;;4960101;28;20308;-82
2021/07/25 12:51:07;;;;;;;5.80;5.30;;;;;;;;;;4960889;29;20205;-82
2021/07/25 12:53:39;;;;;;;6.30;5.90;;;;;;;;;;4961591;28;20220;-85
2021/07/25 12:56:08;;;;;;;5.55;4.78;;;;;;;;;;4960644;29;20201;-83
2021/07/25 12:58:40;;;;;;;6.45;5.95;;;;;;;;;;4959986;28;20225;-82
2021/07/25 13:04:10;;;;;;;5.13;4.72;;;;;;;;;;4976318;28;20676;-82
2021/07/25 13:06:40;;;;;;;6.57;4.95;;;;;;;;;;4980157;28;20192;-82
2021/07/25 13:09:10;;;;;;;5.63;5.07;;;;;;;;;;4978433;28;20232;-83
2021/07/25 13:11:42;;;;;;;5.18;4.78;;;;;;;;;;4980050;28;20185;-83
2021/07/25 13:14:11;;;;;;;4.80;4.40;;;;;;;;;;4965019;28;20220;-82
2021/07/25 13:16:42;;;;;;;4.70;4.40;;;;;;;;;;4962240;29;20759;-86
2021/07/25 13:19:11;;;;;;;4.53;4.15;;;;;;;;;;4959392;28;20225;-84
2021/07/25 13:21:39;;;;;;;4.82;4.43;;;;;;;;;;4940401;29;20190;-84
2021/07/25 13:24:13;;;;;;;5.15;4.75;;;;;;;;;;4977061;28;20200;-87
2021/07/25 13:26:41;;;;;;;4.43;4.03;;;;;;;;;;4984220;28;20189;-87
2021/07/25 13:29:10;;;;;;;4.97;4.57;;;;;;;;;;4979429;28;20315;-86
2021/07/25 13:31:46;;;;;;;5.28;4.88;;;;;;;;;;4977936;28;20195;-87
2021/07/25 13:37:57;;;;;;;5.60;5.20;;;;;;;;;;4962095;28;20220;-88
2021/07/25 13:40:28;;;;;;;5.88;5.38;;;;;;;;;;4962090;29;20196;-87
2021/07/25 13:42:55;;;;;;;4.60;4.20;;;;;;;;;;4982460;28;20207;-87
2021/07/25 13:45:25;;;;;;;4.40;4.07;;;;;;;;;;4982785;28;20213;-88
2021/07/25 13:47:53;;;;;;;4.72;4.32;;;;;;;;;;4963242;28;20248;-87
2021/07/25 13:50:23;;;;;;;4.72;4.32;;;;;;;;;;4962005;29;20190;-87
2021/07/25 13:53:00;;;;;;;4.53;4.13;;;;;;;;;;4964370;29;20223;-87
2021/07/25 13:55:31;;;;;;;4.72;4.32;;;;;;;;;;4966589;29;20229;-87
2021/07/25 13:58:00;;;;;;;3.60;3.40;;;;;;;;;;4964134;28;20208;-87
2021/07/25 14:00:43;;;;;;;3.55;3.35;;;;;;;;;;4963636;29;20217;-87
2021/07/25 14:03:11;;;;;;;3.90;3.60;;;;;;;;;;4984555;28;20185;-88
2021/07/25 14:05:39;;;;;;;3.03;2.83;;;;;;;;;;4998397;28;20184;-86
2021/07/25 14:08:07;;;;;;;3.05;2.85;;;;;;;;;;4999024;28;20209;-86
2021/07/25 14:10:36;;;;;;;3.85;3.55;;;;;;;;;;4982123;28;20225;-86
2021/07/25 14:13:05;;;;;;;3.35;3.08;;;;;;;;;;4972213;29;20195;-87
2021/07/25 14:15:35;;;;;;;3.88;3.58;;;;;;;;;;4972748;29;20200;-86
2021/07/25 14:18:03;;;;;;;3.72;3.42;;;;;;;;;;4970570;28;20245;-86
2021/07/25 14:20:33;;;;;;;4.03;3.72;;;;;;;;;;4975953;29;20651;-87
2021/07/25 14:23:01;;;;;;;3.00;2.80;;;;;;;;;;4975801;29;20200;-88
2021/07/25 14:26:01;;;;;;;3.60;3.30;;;;;;;;;;4973523;29;20237;-87
2021/07/25 14:28:29;;;;;;;3.45;3.22;;;;;;;;;;4978836;28;20244;-88
2021/07/25 14:30:58;;;;;;;2.85;2.65;;;;;;;;;;4979144;29;20189;-86
2021/07/25 14:33:25;;;;;;;3.10;2.85;;;;;;;;;;4979553;28;20208;-89
2021/07/25 14:35:53;;;;;;;3.22;3.03;;;;;;;;;;4977984;28;20189;-87
2021/07/25 14:42:13;;;;;;;2.58;2.38;;;;;;;;;;4952871;28;20191;-89
2021/07/25 14:45:11;;;;;;;3.25;2.92;;;;;;;;;;4995385;28;20235;-90
2021/07/25 14:48:10;;;;;;;2.40;2.30;;;;;;;;;;4989721;28;21011;-88
2021/07/25 14:51:26;;;;;;;2.55;2.35;;;;;;;;;;4987670;28;20235;-89
2021/07/25 14:53:55;;;;;;;3.10;2.90;;;;;;;;;;4964950;28;20177;-89
2021/07/25 14:56:22;;;;;;;1.98;1.88;;;;;;;;;;4959471;28;20213;-88
2021/07/25 14:58:52;;;;;;;2.40;2.20;;;;;;;;;;4971842;28;20304;-88
2021/07/25 15:01:20;;;;;;;2.65;2.45;;;;;;;;;;4978791;29;20201;-88
2021/07/25 15:03:49;;;;;;;2.67;2.47;;;;;;;;;;4977958;28;20201;-87
2021/07/25 15:06:22;;;;;;;2.67;2.47;;;;;;;;;;4978147;28;20232;-88
2021/07/25 15:08:50;;;;;;;2.33;2.17;;;;;;;;;;4977647;28;20261;-86
2021/07/25 15:11:17;;;;;;;2.38;2.28;;;;;;;;;;4977630;29;20190;-87
2021/07/25 15:13:46;;;;;;;2.80;2.60;;;;;;;;;;4976743;28;20256;-85
2021/07/25 15:16:15;;;;;;;2.70;2.50;;;;;;;;;;4975630;29;20215;-87